createdAt,value
2023-01-13T00:01:29.067Z,5.78
2023-01-13T00:03:57.227Z,5.77
2023-01-13T00:06:26.124Z,5.78
2023-01-13T00:08:54.172Z,5.77
2023-01-13T00:11:21.750Z,5.78
2023-01-13T00:13:48.742Z,5.78
2023-01-13T00:16:18.864Z,5.78
2023-01-13T00:18:46.335Z,5.77
2023-01-13T00:21:19.929Z,5.76
2023-01-13T00:23:47.919Z,5.75
2023-01-13T00:26:24.118Z,5.73
2023-01-13T00:28:51.345Z,5.71
2023-01-13T00:31:20.851Z,5.72
2023-01-13T00:33:51.610Z,5.69
2023-01-13T00:36:20.844Z,5.68
2023-01-13T00:38:48.478Z,5.68
2023-01-13T00:41:19.486Z,5.69
2023-01-13T00:43:47.422Z,5.69
2023-01-13T00:46:17.814Z,5.69
2023-01-13T00:48:45.974Z,5.69
2023-01-13T00:51:17.171Z,5.70
2023-01-13T00:53:47.472Z,5.71
2023-01-13T00:56:41.166Z,5.72
2023-01-13T00:59:12.552Z,5.70
2023-01-13T01:01:41.238Z,5.68
2023-01-13T01:04:08.470Z,5.66
2023-01-13T01:06:35.575Z,5.65
2023-01-13T01:09:03.604Z,5.63
2023-01-13T01:11:33.281Z,5.63
2023-01-13T01:14:03.275Z,5.60
2023-01-13T01:16:33.004Z,5.59
2023-01-13T01:19:01.113Z,5.57
2023-01-13T01:21:29.082Z,5.57
2023-01-13T01:23:59.349Z,5.57
2023-01-13T01:26:28.602Z,5.54
2023-01-13T01:28:55.565Z,5.53
2023-01-13T01:31:31.990Z,5.49
2023-01-13T01:34:00.685Z,5.47
2023-01-13T01:36:30.299Z,5.46
2023-01-13T01:38:59.391Z,5.42
2023-01-13T01:41:31.817Z,5.39
2023-01-13T01:44:08.468Z,5.37
2023-01-13T01:46:40.884Z,5.42
2023-01-13T01:49:22.738Z,5.34
2023-01-13T01:52:35.075Z,5.28
2023-01-13T01:55:06.892Z,5.25
2023-01-13T01:57:46.761Z,5.24
2023-01-13T02:00:14.648Z,5.21
2023-01-13T02:02:45.457Z,5.16
2023-01-13T02:05:13.538Z,5.13
2023-01-13T02:07:43.694Z,5.13
2023-01-13T02:10:15.125Z,5.11
2023-01-13T02:12:45.329Z,5.08
2023-01-13T02:15:16.805Z,5.08
2023-01-13T02:18:07.147Z,5.07
2023-01-13T02:21:02.569Z,4.97
2023-01-13T02:24:27.889Z,4.95
2023-01-13T02:27:22.844Z,4.92
2023-01-13T02:30:23.602Z,4.93
2023-01-13T02:33:08.819Z,4.90
2023-01-13T02:36:01.609Z,4.91
2023-01-13T02:38:41.133Z,4.92
2023-01-13T02:41:47.071Z,4.93
2023-01-13T02:44:20.971Z,4.92
2023-01-13T02:47:06.841Z,4.91
2023-01-13T02:49:41.467Z,4.92
2023-01-13T02:52:15.850Z,4.93
2023-01-13T02:54:47.995Z,4.91
2023-01-13T02:57:18.269Z,4.90
2023-01-13T02:59:45.421Z,4.87
2023-01-13T03:02:19.561Z,4.86
2023-01-13T03:04:58.263Z,4.84
2023-01-13T03:08:17.883Z,4.92
2023-01-13T03:11:00.149Z,4.82
2023-01-13T03:14:00.887Z,4.80
2023-01-13T03:16:52.860Z,4.79
2023-01-13T03:20:14.449Z,4.72
2023-01-13T03:23:30.245Z,4.71
2023-01-13T03:26:09.050Z,4.71
2023-01-13T03:28:57.315Z,4.70
2023-01-13T03:31:32.270Z,4.73
2023-01-13T03:34:07.781Z,4.75
2023-01-13T03:36:38.839Z,4.73
2023-01-13T03:39:12.852Z,4.66
2023-01-13T03:41:53.010Z,4.62
2023-01-13T03:44:33.841Z,4.63
2023-01-13T03:47:11.563Z,4.63
2023-01-13T03:50:05.425Z,4.60
2023-01-13T03:52:41.623Z,4.60
2023-01-13T03:55:16.380Z,4.60
2023-01-13T03:58:10.515Z,4.59
2023-01-13T04:00:47.175Z,4.59
2023-01-13T04:03:25.731Z,4.56
2023-01-13T04:06:25.751Z,4.60
2023-01-13T04:09:27.715Z,4.62
2023-01-13T04:12:10.740Z,4.61
2023-01-13T04:14:38.936Z,4.64
2023-01-13T04:17:06.010Z,4.67
2023-01-13T04:19:33.119Z,4.69
2023-01-13T04:22:00.214Z,4.71
2023-01-13T04:24:27.227Z,4.69
2023-01-13T04:26:56.448Z,4.69
2023-01-13T04:29:23.529Z,4.69
2023-01-13T04:31:50.515Z,4.71
2023-01-13T04:34:17.490Z,4.70
2023-01-13T04:36:45.222Z,4.72
2023-01-13T04:39:12.641Z,4.73
2023-01-13T04:41:57.775Z,4.74
2023-01-13T04:44:26.180Z,4.72
2023-01-13T04:46:53.788Z,4.72
2023-01-13T04:49:21.309Z,4.72
2023-01-13T04:51:48.509Z,4.71
2023-01-13T04:54:16.301Z,4.68
2023-01-13T04:56:43.703Z,4.68
2023-01-13T04:59:12.825Z,4.65
2023-01-13T05:01:40.837Z,4.63
2023-01-13T05:04:08.603Z,4.62
2023-01-13T05:06:35.860Z,4.61
2023-01-13T05:09:03.187Z,4.58
2023-01-13T05:11:48.542Z,4.56
2023-01-13T05:14:34.173Z,4.55
2023-01-13T05:17:01.238Z,4.52
2023-01-13T05:19:34.897Z,4.51
2023-01-13T05:22:21.538Z,4.50
2023-01-13T05:25:06.998Z,4.51
2023-01-13T05:27:33.978Z,4.50
2023-01-13T05:30:01.343Z,4.51
2023-01-13T05:32:28.481Z,4.52
2023-01-13T05:34:56.492Z,4.50
2023-01-13T05:37:24.317Z,4.50
2023-01-13T05:40:10.245Z,4.51
2023-01-13T05:42:55.665Z,4.51
2023-01-13T05:45:23.799Z,4.51
2023-01-13T05:47:50.954Z,4.50
2023-01-13T05:50:18.855Z,4.50
2023-01-13T05:52:45.924Z,4.48
2023-01-13T05:55:12.952Z,4.48
2023-01-13T05:57:40.119Z,4.48
2023-01-13T06:00:10.163Z,4.47
2023-01-13T06:02:40.116Z,4.47
2023-01-13T06:05:07.806Z,4.49
2023-01-13T06:07:34.748Z,4.51
2023-01-13T06:10:01.903Z,4.50
2023-01-13T06:12:29.097Z,4.51
2023-01-13T06:14:56.077Z,4.51
2023-01-13T06:17:23.040Z,4.51
2023-01-13T06:19:51.133Z,4.52
2023-01-13T06:22:25.684Z,4.52
2023-01-13T06:24:54.653Z,4.55
2023-01-13T06:27:23.167Z,4.54
2023-01-13T06:29:50.481Z,4.52
2023-01-13T06:32:42.925Z,4.53
2023-01-13T06:35:14.991Z,4.53
2023-01-13T06:37:45.260Z,4.53
2023-01-13T06:40:15.360Z,4.47
2023-01-13T06:43:00.980Z,4.44
2023-01-13T06:45:31.403Z,4.44
2023-01-13T06:47:59.963Z,4.47
2023-01-13T06:50:29.005Z,4.45
2023-01-13T06:52:56.401Z,4.47
2023-01-13T06:55:23.433Z,4.50
2023-01-13T06:57:55.859Z,4.51
2023-01-13T07:00:25.399Z,4.54
2023-01-13T07:02:53.941Z,4.54
2023-01-13T07:05:22.565Z,4.52
2023-01-13T07:07:49.530Z,4.54
2023-01-13T07:10:22.605Z,4.58
2023-01-13T07:13:08.517Z,4.59
2023-01-13T07:15:35.594Z,4.61
2023-01-13T07:18:03.496Z,4.63
2023-01-13T07:20:31.030Z,4.66
2023-01-13T07:22:58.526Z,4.68
2023-01-13T07:25:25.907Z,4.69
2023-01-13T07:27:52.871Z,4.73
2023-01-13T07:30:19.889Z,4.74
2023-01-13T07:32:46.971Z,4.74
2023-01-13T07:35:14.037Z,4.74
2023-01-13T07:37:41.978Z,4.72
2023-01-13T07:40:10.220Z,4.69
2023-01-13T07:42:57.523Z,4.72
2023-01-13T07:45:24.473Z,4.71
2023-01-13T07:47:53.189Z,4.74
2023-01-13T07:50:21.765Z,4.78
2023-01-13T07:52:48.921Z,4.79
2023-01-13T07:55:16.092Z,4.80
2023-01-13T07:57:43.499Z,4.82
2023-01-13T08:00:13.047Z,4.82
2023-01-13T08:02:40.439Z,4.85
2023-01-13T08:05:08.568Z,4.87
2023-01-13T08:07:36.073Z,4.89
2023-01-13T08:10:04.555Z,4.92
2023-01-13T08:12:53.577Z,4.96
2023-01-13T08:15:24.971Z,4.97
2023-01-13T08:17:52.340Z,4.98
2023-01-13T08:20:19.452Z,5.00
2023-01-13T08:22:46.561Z,5.05
2023-01-13T08:25:14.084Z,5.07
2023-01-13T08:27:41.337Z,5.05
2023-01-13T08:30:09.680Z,5.06
2023-01-13T08:32:36.579Z,5.09
2023-01-13T08:35:03.646Z,5.14
2023-01-13T08:37:30.737Z,5.19
2023-01-13T08:39:57.717Z,5.21
2023-01-13T08:42:26.555Z,5.26
2023-01-13T08:44:54.846Z,5.30
2023-01-13T08:47:22.341Z,5.28
2023-01-13T08:49:49.409Z,5.30
2023-01-13T08:52:17.351Z,5.32
2023-01-13T08:54:44.366Z,5.32
2023-01-13T08:57:11.370Z,5.37
2023-01-13T08:59:38.479Z,5.37
2023-01-13T09:02:17.653Z,5.36
2023-01-13T09:04:45.626Z,5.39
2023-01-13T09:07:13.177Z,5.42
2023-01-13T09:09:40.339Z,5.47
2023-01-13T09:12:26.735Z,5.47
2023-01-13T09:14:53.708Z,5.55
2023-01-13T09:17:20.852Z,5.49
2023-01-13T09:19:47.875Z,5.51
2023-01-13T09:22:17.525Z,5.51
2023-01-13T09:24:45.506Z,5.55
2023-01-13T09:27:14.986Z,5.57
2023-01-13T09:29:42.184Z,5.65
2023-01-13T09:32:13.853Z,5.65
2023-01-13T09:35:00.053Z,5.69
2023-01-13T09:37:34.427Z,5.73
2023-01-13T09:40:02.134Z,5.76
2023-01-13T09:43:14.231Z,5.80
2023-01-13T09:45:54.095Z,5.84
2023-01-13T09:48:29.393Z,5.89
2023-01-13T09:51:21.030Z,5.90
2023-01-13T09:53:59.492Z,5.92
2023-01-13T09:56:27.176Z,5.94
2023-01-13T09:58:54.511Z,5.95
2023-01-13T10:01:45.178Z,6.00
2023-01-13T10:04:15.042Z,6.02
2023-01-13T10:06:50.376Z,6.03
2023-01-13T10:09:42.681Z,6.08
2023-01-13T10:12:40.960Z,6.05
2023-01-13T10:15:17.275Z,6.09
2023-01-13T10:18:13.018Z,6.07
2023-01-13T10:21:04.565Z,6.12
2023-01-13T10:24:01.926Z,6.14
2023-01-13T10:27:13.332Z,6.20
2023-01-13T10:29:40.339Z,6.23
2023-01-13T10:32:07.288Z,6.28
2023-01-13T10:34:51.529Z,6.30
2023-01-13T10:37:27.240Z,6.35
2023-01-13T10:40:01.667Z,6.38
2023-01-13T10:42:30.146Z,6.43
2023-01-13T10:45:00.009Z,6.48
2023-01-13T10:47:36.570Z,6.52
2023-01-13T10:50:24.834Z,6.56
2023-01-13T10:53:00.848Z,6.56
2023-01-13T10:55:34.465Z,6.59
2023-01-13T10:58:18.923Z,6.62
2023-01-13T11:00:46.996Z,6.61
2023-01-13T11:03:17.065Z,6.64
2023-01-13T11:05:59.478Z,6.69
2023-01-13T11:08:31.086Z,6.72
2023-01-13T11:10:59.949Z,6.71
2023-01-13T11:13:59.724Z,6.80
2023-01-13T11:16:28.066Z,6.74
2023-01-13T11:19:12.130Z,6.81
2023-01-13T11:21:56.589Z,6.87
2023-01-13T11:24:40.485Z,6.90
2023-01-13T11:27:51.136Z,6.97
2023-01-13T11:30:44.300Z,6.99
2023-01-13T11:33:14.126Z,7.04
2023-01-13T11:35:58.945Z,7.07
2023-01-13T11:38:37.777Z,7.12
2023-01-13T11:41:39.966Z,7.16
2023-01-13T11:44:26.532Z,7.13
2023-01-13T11:46:55.329Z,7.20
2023-01-13T11:49:29.231Z,7.24
2023-01-13T11:52:21.938Z,7.25
2023-01-13T11:55:28.782Z,7.30
2023-01-13T11:58:50.203Z,7.31
2023-01-13T12:01:54.494Z,7.34
2023-01-13T12:05:11.102Z,7.38
2023-01-13T12:07:59.467Z,7.44
2023-01-13T12:10:43.886Z,7.46
2023-01-13T12:13:59.884Z,7.52
2023-01-13T12:16:30.745Z,7.58
2023-01-13T12:19:30.227Z,7.65
2023-01-13T12:22:36.064Z,7.73
2023-01-13T12:25:20.887Z,7.70
2023-01-13T12:28:13.223Z,7.77
2023-01-13T12:30:56.232Z,7.86
2023-01-13T12:33:58.568Z,7.94
2023-01-13T12:36:51.992Z,7.98
2023-01-13T12:40:09.116Z,8.02
2023-01-13T12:43:19.279Z,8.05
2023-01-13T12:45:46.286Z,8.10
2023-01-13T12:48:59.547Z,8.15
2023-01-13T12:51:36.741Z,8.18
2023-01-13T12:54:53.870Z,8.23
2023-01-13T12:57:27.914Z,8.25
2023-01-13T13:00:04.688Z,8.22
2023-01-13T13:02:33.634Z,8.31
2023-01-13T13:05:23.113Z,8.33
2023-01-13T13:08:05.907Z,8.40
2023-01-13T13:10:38.069Z,8.38
2023-01-13T13:13:22.666Z,8.47
2023-01-13T13:15:51.662Z,8.50
2023-01-13T13:18:19.563Z,8.48
2023-01-13T13:21:04.655Z,8.60
2023-01-13T13:23:45.874Z,8.70
2023-01-13T13:26:24.964Z,8.76
2023-01-13T13:29:22.389Z,8.84
2023-01-13T13:32:25.808Z,8.93
2023-01-13T13:35:32.065Z,8.96
2023-01-13T13:39:05.680Z,9.05
2023-01-13T13:41:55.256Z,9.10
2023-01-13T13:44:59.709Z,9.15
2023-01-13T13:47:39.163Z,9.20
2023-01-13T13:50:20.473Z,9.23
2023-01-13T13:53:00.486Z,9.22
2023-01-13T13:55:29.982Z,9.19
2023-01-13T13:57:59.396Z,9.09
2023-01-13T14:00:35.071Z,9.07
2023-01-13T14:03:24.928Z,9.03
2023-01-13T14:05:59.424Z,8.95
2023-01-13T14:08:30.058Z,8.99
2023-01-13T14:10:57.327Z,8.97
2023-01-13T14:13:33.076Z,9.06
2023-01-13T14:16:03.701Z,9.12
2023-01-13T14:18:45.031Z,9.22
2023-01-13T14:21:30.086Z,9.33
2023-01-13T14:24:10.704Z,9.37
2023-01-13T14:26:37.943Z,9.40
2023-01-13T14:29:06.217Z,9.44
2023-01-13T14:31:34.635Z,9.45
2023-01-13T14:34:30.678Z,9.48
2023-01-13T14:36:51.419Z,9.51
2023-01-13T14:39:18.295Z,9.46
2023-01-13T14:41:48.300Z,9.46
2023-01-13T14:44:24.223Z,9.46
2023-01-13T14:46:55.121Z,9.44
2023-01-13T14:49:36.076Z,9.44
2023-01-13T14:52:09.816Z,9.43
2023-01-13T14:54:59.999Z,9.42
2023-01-13T14:57:34.953Z,9.39
2023-01-13T15:00:14.451Z,9.38
2023-01-13T15:02:43.998Z,9.34
2023-01-13T15:05:17.121Z,9.31
2023-01-13T15:08:11.498Z,9.28
2023-01-13T15:11:06.581Z,9.23
2023-01-13T15:13:55.053Z,9.18
2023-01-13T15:16:25.626Z,9.15
2023-01-13T15:18:56.442Z,9.12
2023-01-13T15:21:25.118Z,9.09
2023-01-13T15:23:52.232Z,9.05
2023-01-13T15:26:29.760Z,9.03
2023-01-13T15:28:59.134Z,8.99
2023-01-13T15:31:28.438Z,8.96
2023-01-13T15:33:55.814Z,8.91
2023-01-13T15:36:32.308Z,8.86
2023-01-13T15:39:01.287Z,8.82
2023-01-13T15:41:47.390Z,8.79
2023-01-13T15:44:34.849Z,8.74
2023-01-13T15:47:06.309Z,8.69
2023-01-13T15:49:45.447Z,8.64
2023-01-13T15:52:32.876Z,8.61
2023-01-13T15:54:59.804Z,8.56
2023-01-13T15:57:28.703Z,8.50
2023-01-13T15:59:58.844Z,8.45
2023-01-13T16:02:26.789Z,8.38
2023-01-13T16:04:54.520Z,8.34
2023-01-13T16:07:24.237Z,8.29
2023-01-13T16:09:52.195Z,8.25
2023-01-13T16:12:19.226Z,8.20
2023-01-13T16:14:46.232Z,8.17
2023-01-13T16:17:20.374Z,8.15
2023-01-13T16:19:47.442Z,8.08
2023-01-13T16:22:15.912Z,8.06
2023-01-13T16:24:43.503Z,8.04
2023-01-13T16:27:23.519Z,7.99
2023-01-13T16:29:52.747Z,7.93
2023-01-13T16:32:21.072Z,7.89
2023-01-13T16:34:48.595Z,7.83
2023-01-13T16:37:21.758Z,7.78
2023-01-13T16:39:48.807Z,7.76
2023-01-13T16:42:15.732Z,7.72
2023-01-13T16:44:44.126Z,7.69
2023-01-13T16:47:17.050Z,7.66
2023-01-13T16:49:44.831Z,7.62
2023-01-13T16:52:11.889Z,7.57
2023-01-13T16:54:38.869Z,7.53
2023-01-13T16:57:07.584Z,7.47
2023-01-13T16:59:34.524Z,7.43
2023-01-13T17:02:02.248Z,7.41
2023-01-13T17:04:29.292Z,7.38
2023-01-13T17:07:00.627Z,7.34
2023-01-13T17:09:29.125Z,7.28
2023-01-13T17:11:56.537Z,7.24
2023-01-13T17:14:24.360Z,7.21
2023-01-13T17:16:54.743Z,7.16
2023-01-13T17:19:23.351Z,7.09
2023-01-13T17:21:51.185Z,7.03
2023-01-13T17:24:18.516Z,7.00
2023-01-13T17:26:49.337Z,6.97
2023-01-13T17:29:19.178Z,6.94
2023-01-13T17:31:46.277Z,6.92
2023-01-13T17:34:13.784Z,6.90
2023-01-13T17:36:43.373Z,6.87
2023-01-13T17:39:24.403Z,6.82
2023-01-13T17:41:56.028Z,6.77
2023-01-13T17:44:23.642Z,6.75
2023-01-13T17:46:51.022Z,6.71
2023-01-13T17:49:21.342Z,6.70
2023-01-13T17:51:51.039Z,6.67
2023-01-13T17:54:18.641Z,6.66
2023-01-13T17:56:45.837Z,6.67
2023-01-13T17:59:16.191Z,6.66
2023-01-13T18:01:43.714Z,6.64
2023-01-13T18:04:21.369Z,6.62
2023-01-13T18:06:49.337Z,6.59
2023-01-13T18:09:17.147Z,6.54
2023-01-13T18:11:45.625Z,6.50
2023-01-13T18:14:14.765Z,6.47
2023-01-13T18:16:42.019Z,6.45
2023-01-13T18:19:29.269Z,6.43
2023-01-13T18:22:14.852Z,6.42
2023-01-13T18:25:00.752Z,6.39
2023-01-13T18:27:34.027Z,6.38
2023-01-13T18:30:02.919Z,6.35
2023-01-13T18:32:33.486Z,6.33
2023-01-13T18:35:06.471Z,6.31
2023-01-13T18:37:42.268Z,6.29
2023-01-13T18:40:13.134Z,6.24
2023-01-13T18:42:54.710Z,6.22
2023-01-13T18:45:26.860Z,6.22
2023-01-13T18:47:56.478Z,6.20
2023-01-13T18:50:24.722Z,6.20
2023-01-13T18:52:52.275Z,6.18
2023-01-13T18:55:19.923Z,6.16
2023-01-13T18:57:47.362Z,6.14
2023-01-13T19:00:20.331Z,6.12
2023-01-13T19:02:50.708Z,6.08
2023-01-13T19:05:18.320Z,6.06
2023-01-13T19:07:50.601Z,6.04
2023-01-13T19:10:18.591Z,6.04
2023-01-13T19:12:45.776Z,5.99
2023-01-13T19:15:13.156Z,5.95
2023-01-13T19:17:40.200Z,5.91
2023-01-13T19:20:08.395Z,5.86
2023-01-13T19:22:35.888Z,5.84
2023-01-13T19:25:06.009Z,5.82
2023-01-13T19:27:33.916Z,5.79
2023-01-13T19:30:01.378Z,5.76
2023-01-13T19:32:30.930Z,5.74
2023-01-13T19:34:59.649Z,5.72
2023-01-13T19:37:30.454Z,5.74
2023-01-13T19:39:59.698Z,5.74
2023-01-13T19:42:46.917Z,5.77
2023-01-13T19:45:26.572Z,5.68
2023-01-13T19:47:58.533Z,5.62
2023-01-13T19:50:26.216Z,5.60
2023-01-13T19:52:53.995Z,5.60
2023-01-13T19:55:21.011Z,5.60
2023-01-13T19:57:48.464Z,5.59
2023-01-13T20:00:20.836Z,5.60
2023-01-13T20:02:51.802Z,5.59
2023-01-13T20:05:22.628Z,5.59
2023-01-13T20:07:51.361Z,5.56
2023-01-13T20:10:20.893Z,5.54
2023-01-13T20:12:48.353Z,5.50
2023-01-13T20:15:15.463Z,5.49
2023-01-13T20:17:42.542Z,5.48
2023-01-13T20:20:12.041Z,5.49
2023-01-13T20:22:40.060Z,5.46
2023-01-13T20:25:08.949Z,5.44
2023-01-13T20:27:36.478Z,5.43
2023-01-13T20:30:05.756Z,5.43
2023-01-13T20:32:32.683Z,5.43
2023-01-13T20:34:59.878Z,5.43
2023-01-13T20:37:27.376Z,5.39
2023-01-13T20:39:55.318Z,5.37
2023-01-13T20:42:32.300Z,5.35
2023-01-13T20:45:01.311Z,5.32
2023-01-13T20:47:29.893Z,5.29
2023-01-13T20:49:57.265Z,5.25
2023-01-13T20:52:24.721Z,5.21
2023-01-13T20:54:51.861Z,5.16
2023-01-13T20:57:18.922Z,5.14
2023-01-13T20:59:46.037Z,5.07
2023-01-13T21:02:16.376Z,5.05
2023-01-13T21:04:44.104Z,5.02
2023-01-13T21:07:11.335Z,5.01
2023-01-13T21:09:38.482Z,5.02
2023-01-13T21:12:25.126Z,4.99
2023-01-13T21:15:11.108Z,4.99
2023-01-13T21:17:56.658Z,5.00
2023-01-13T21:20:24.880Z,5.01
2023-01-13T21:22:55.047Z,5.01
2023-01-13T21:25:22.547Z,5.02
2023-01-13T21:27:49.657Z,5.01
2023-01-13T21:30:17.872Z,4.95
2023-01-13T21:32:45.906Z,4.89
2023-01-13T21:35:14.767Z,4.85
2023-01-13T21:37:43.744Z,4.81
2023-01-13T21:40:15.073Z,4.79
2023-01-13T21:43:01.079Z,4.77
2023-01-13T21:45:46.744Z,4.78
2023-01-13T21:48:13.805Z,4.78
2023-01-13T21:50:42.322Z,4.77
2023-01-13T21:53:09.619Z,4.75
2023-01-13T21:55:36.929Z,4.74
2023-01-13T21:58:15.575Z,4.73
2023-01-13T22:00:45.314Z,4.72
2023-01-13T22:03:15.112Z,4.71
2023-01-13T22:05:42.276Z,4.70
2023-01-13T22:08:12.907Z,4.70
2023-01-13T22:10:57.261Z,4.68
2023-01-13T22:13:43.406Z,4.66
2023-01-13T22:16:10.601Z,4.68
2023-01-13T22:18:37.950Z,4.63
2023-01-13T22:21:05.468Z,4.59
2023-01-13T22:23:32.463Z,4.58
2023-01-13T22:26:04.655Z,4.57
2023-01-13T22:28:40.842Z,4.60
2023-01-13T22:31:17.224Z,4.60
2023-01-13T22:33:48.073Z,4.57
2023-01-13T22:36:15.693Z,4.51
2023-01-13T22:38:42.675Z,4.47
2023-01-13T22:41:11.237Z,4.44
2023-01-13T22:43:38.962Z,4.43
2023-01-13T22:46:13.232Z,4.42
2023-01-13T22:48:41.390Z,4.41
2023-01-13T22:51:14.771Z,4.40
2023-01-13T22:53:42.928Z,4.39
2023-01-13T22:56:21.012Z,4.37
2023-01-13T22:58:49.094Z,4.32
2023-01-13T23:01:17.891Z,4.29
2023-01-13T23:03:48.037Z,4.25
2023-01-13T23:06:17.098Z,4.22
2023-01-13T23:08:46.255Z,4.21
2023-01-13T23:11:16.293Z,4.22
2023-01-13T23:13:43.875Z,4.24
2023-01-13T23:16:14.978Z,4.23
2023-01-13T23:18:42.708Z,4.22
2023-01-13T23:21:14.080Z,4.17
2023-01-13T23:23:41.103Z,4.15
2023-01-13T23:26:09.877Z,4.14
2023-01-13T23:28:37.745Z,4.14
2023-01-13T23:31:14.746Z,4.11
2023-01-13T23:33:43.486Z,4.10
2023-01-13T23:36:27.517Z,4.08
2023-01-13T23:38:54.928Z,4.07
2023-01-13T23:41:24.690Z,4.08
2023-01-13T23:43:59.446Z,4.07
2023-01-13T23:46:30.024Z,4.06
2023-01-13T23:48:57.119Z,4.01
2023-01-13T23:51:26.308Z,4.01
2023-01-13T23:53:54.186Z,4.01
2023-01-13T23:56:24.543Z,4.03
2023-01-13T23:58:52.211Z,4.02
